createdAt,value
2023-12-11T00:01:08.268Z,80.02
2023-12-11T00:05:09.923Z,80.66
2023-12-11T00:09:11.457Z,81.01
2023-12-11T00:13:13.363Z,79.55
2023-12-11T00:17:16.685Z,79.29
2023-12-11T00:21:18.500Z,79.14
2023-12-11T00:25:20.297Z,78.89
2023-12-11T00:29:21.824Z,78.94
2023-12-11T00:33:25.000Z,78.97
2023-12-11T00:37:26.560Z,77.82
2023-12-11T00:41:28.394Z,78.42
2023-12-11T00:45:30.144Z,78.65
2023-12-11T00:49:33.416Z,79.19
2023-12-11T00:53:34.992Z,79.11
2023-12-11T00:57:36.611Z,80.00
2023-12-11T01:01:38.169Z,79.27
2023-12-11T01:05:41.102Z,80.65
2023-12-11T01:09:42.991Z,80.71
2023-12-11T01:13:44.770Z,81.40
2023-12-11T01:17:46.444Z,81.44
2023-12-11T01:21:49.676Z,81.36
2023-12-11T01:25:51.268Z,80.05
2023-12-11T01:29:54.140Z,81.26
2023-12-11T01:33:55.737Z,80.69
2023-12-11T01:37:58.688Z,80.91
2023-12-11T01:42:00.345Z,81.50
2023-12-11T01:46:05.961Z,81.30
2023-12-11T01:50:09.034Z,81.03
2023-12-11T01:54:12.171Z,80.30
2023-12-11T01:58:14.710Z,80.91
2023-12-11T02:02:17.708Z,81.40
2023-12-11T02:06:19.784Z,81.21
2023-12-11T02:10:22.698Z,80.75
2023-12-11T02:14:24.421Z,80.52
2023-12-11T02:18:26.059Z,81.08
2023-12-11T02:22:27.908Z,80.89
2023-12-11T02:26:31.221Z,81.43
2023-12-11T02:30:35.886Z,80.46
2023-12-11T02:34:37.586Z,80.62
2023-12-11T02:38:39.282Z,79.49
2023-12-11T02:42:48.942Z,79.12
2023-12-11T02:46:50.470Z,79.35
2023-12-11T02:50:52.069Z,77.57
2023-12-11T02:54:53.671Z,78.30
2023-12-11T02:58:56.618Z,76.85
2023-12-11T03:02:58.459Z,77.19
2023-12-11T03:07:00.041Z,77.27
2023-12-11T03:11:01.570Z,78.36
2023-12-11T03:15:07.526Z,78.39
2023-12-11T03:19:09.299Z,78.06
2023-12-11T03:23:10.841Z,78.19
2023-12-11T03:27:12.784Z,77.04
2023-12-11T03:31:15.946Z,75.15
2023-12-11T03:35:17.506Z,75.62
2023-12-11T03:39:19.056Z,75.83
2023-12-11T03:43:20.654Z,76.25
2023-12-11T03:47:23.673Z,76.37
2023-12-11T03:51:25.444Z,75.90
2023-12-11T03:55:26.997Z,76.29
2023-12-11T03:59:28.484Z,76.28
2023-12-11T04:03:31.866Z,77.52
2023-12-11T04:07:33.509Z,77.52
2023-12-11T04:11:35.473Z,76.35
2023-12-11T04:15:37.254Z,76.56
2023-12-11T04:19:40.209Z,75.22
2023-12-11T04:23:42.916Z,76.71
2023-12-11T04:27:44.802Z,76.32
2023-12-11T04:31:46.373Z,75.44
2023-12-11T04:35:49.693Z,75.95
2023-12-11T04:39:51.264Z,75.27
2023-12-11T04:43:52.802Z,75.36
2023-12-11T04:47:54.347Z,75.34
2023-12-11T04:51:57.463Z,74.79
2023-12-11T04:55:59.041Z,74.08
2023-12-11T05:00:01.503Z,74.81
2023-12-11T05:04:03.149Z,76.21
2023-12-11T05:08:06.936Z,78.09
2023-12-11T05:12:08.804Z,77.42
2023-12-11T05:16:10.363Z,77.26
2023-12-11T05:20:12.344Z,77.29
2023-12-11T05:24:15.906Z,80.80
2023-12-11T05:28:17.554Z,81.26
2023-12-11T05:32:19.076Z,81.33
2023-12-11T05:36:20.575Z,81.11
2023-12-11T05:40:24.179Z,81.58
2023-12-11T05:44:25.832Z,82.04
2023-12-11T05:48:27.666Z,80.42
2023-12-11T05:52:29.452Z,80.04
2023-12-11T05:56:32.341Z,80.93
2023-12-11T06:00:34.014Z,84.26
2023-12-11T06:04:35.895Z,83.98
2023-12-11T06:08:37.410Z,83.67
2023-12-11T06:12:40.340Z,83.14
2023-12-11T06:16:41.875Z,83.62
2023-12-11T06:20:43.481Z,84.32
2023-12-11T06:24:45.049Z,84.60
2023-12-11T06:28:47.952Z,83.88
2023-12-11T06:32:49.705Z,84.50
2023-12-11T06:36:51.382Z,84.84
2023-12-11T06:40:53.272Z,84.94
2023-12-11T06:44:57.220Z,85.48
2023-12-11T06:48:59.192Z,84.54
2023-12-11T06:53:00.963Z,85.00
2023-12-11T06:57:02.581Z,84.40
2023-12-11T07:01:09.943Z,84.20
2023-12-11T07:05:11.607Z,84.21
2023-12-11T07:09:13.267Z,84.18
2023-12-11T07:13:14.874Z,83.25
2023-12-11T07:17:17.788Z,82.69
2023-12-11T07:21:19.433Z,82.47
2023-12-11T07:25:21.001Z,82.35
2023-12-11T07:29:22.804Z,81.42
2023-12-11T07:33:25.799Z,81.83
2023-12-11T07:37:27.408Z,82.04
2023-12-11T07:41:29.245Z,82.19
2023-12-11T07:45:30.743Z,82.18
2023-12-11T07:49:33.748Z,82.72
2023-12-11T07:53:35.339Z,82.71
2023-12-11T07:57:36.841Z,83.52
2023-12-11T08:01:38.464Z,82.82
2023-12-11T08:05:41.451Z,83.21
2023-12-11T08:09:43.344Z,81.96
2023-12-11T08:13:45.637Z,80.98
2023-12-11T08:17:47.214Z,82.04
2023-12-11T08:21:50.124Z,80.73
2023-12-11T08:25:51.730Z,79.98
2023-12-11T08:29:53.313Z,78.82
2023-12-11T08:33:55.209Z,77.23
2023-12-11T08:37:58.106Z,77.52
2023-12-11T08:41:59.660Z,77.25
2023-12-11T08:46:01.215Z,76.00
2023-12-11T08:50:03.334Z,74.50
2023-12-11T08:54:06.414Z,74.42
2023-12-11T08:58:07.949Z,73.92
2023-12-11T09:02:09.547Z,72.19
2023-12-11T09:06:11.297Z,72.40
2023-12-11T09:10:14.625Z,73.13
2023-12-11T09:14:16.288Z,70.62
2023-12-11T09:18:17.938Z,70.74
2023-12-11T09:22:19.615Z,73.10
2023-12-11T09:26:22.528Z,72.91
2023-12-11T09:30:24.350Z,71.44
2023-12-11T09:34:26.406Z,72.98
2023-12-11T09:38:28.112Z,73.85
2023-12-11T09:42:31.725Z,73.40
2023-12-11T09:46:39.433Z,73.84
2023-12-11T09:50:41.346Z,73.83
2023-12-11T09:54:43.327Z,72.34
2023-12-11T09:58:47.063Z,72.36
2023-12-11T10:02:51.344Z,71.53
2023-12-11T10:06:53.514Z,72.03
2023-12-11T10:11:09.194Z,71.32
2023-12-11T10:15:12.141Z,72.47
2023-12-11T10:19:15.051Z,72.04
2023-12-11T10:23:18.227Z,72.17
2023-12-11T10:27:22.742Z,70.08
2023-12-11T10:31:35.436Z,70.25
2023-12-11T10:35:37.053Z,70.64
2023-12-11T10:39:38.695Z,70.31
2023-12-11T10:43:55.347Z,71.22
2023-12-11T10:48:03.834Z,72.86
2023-12-11T10:52:05.599Z,73.48
2023-12-11T10:56:08.896Z,74.61
2023-12-11T11:00:11.956Z,76.72
2023-12-11T11:04:16.783Z,77.35
2023-12-11T11:08:26.756Z,78.78
2023-12-11T11:12:41.065Z,78.74
2023-12-11T11:16:52.695Z,80.12
2023-12-11T11:21:12.163Z,78.64
2023-12-11T11:25:33.473Z,79.25
2023-12-11T11:29:39.039Z,78.96
2023-12-11T11:33:45.143Z,79.03
2023-12-11T11:37:51.050Z,79.88
2023-12-11T11:41:52.608Z,78.91
2023-12-11T11:45:55.074Z,78.70
2023-12-11T11:50:04.601Z,77.29
2023-12-11T11:54:07.785Z,76.22
2023-12-11T11:58:12.025Z,75.92
2023-12-11T12:02:21.727Z,75.90
2023-12-11T12:06:23.404Z,77.09
2023-12-11T12:10:26.855Z,77.87
2023-12-11T12:14:28.468Z,76.82
2023-12-11T12:18:30.333Z,75.94
2023-12-11T12:22:32.171Z,78.03
2023-12-11T12:26:37.189Z,77.17
2023-12-11T12:30:38.817Z,77.58
2023-12-11T12:34:44.955Z,79.08
2023-12-11T12:38:46.700Z,79.98
2023-12-11T12:42:51.360Z,81.37
2023-12-11T12:46:52.947Z,82.89
2023-12-11T12:51:05.138Z,87.83
2023-12-11T12:55:07.159Z,87.79
2023-12-11T12:59:10.087Z,88.94
2023-12-11T13:03:11.650Z,89.65
2023-12-11T13:07:13.224Z,90.10
2023-12-11T13:11:14.747Z,90.17
2023-12-11T13:15:17.669Z,90.63
2023-12-11T13:19:19.515Z,90.17
2023-12-11T13:23:21.082Z,90.35
2023-12-11T13:27:22.665Z,89.65
2023-12-11T13:31:25.884Z,90.54
2023-12-11T13:35:27.547Z,89.45
2023-12-11T13:39:29.065Z,90.10
2023-12-11T13:43:30.629Z,89.63
2023-12-11T13:47:33.828Z,88.86
2023-12-11T13:51:35.716Z,88.43
2023-12-11T13:55:37.162Z,88.52
2023-12-11T13:59:38.668Z,87.72
2023-12-11T14:03:41.561Z,87.52
2023-12-11T14:07:44.665Z,88.79
2023-12-11T14:11:46.291Z,88.29
2023-12-11T14:15:47.840Z,88.32
2023-12-11T14:19:50.888Z,88.06
2023-12-11T14:23:52.894Z,88.52
2023-12-11T14:27:55.989Z,88.10
2023-12-11T14:31:57.561Z,87.84
2023-12-11T14:36:00.415Z,87.82
2023-12-11T14:40:02.116Z,87.50
2023-12-11T14:44:03.818Z,87.34
2023-12-11T14:48:08.089Z,87.80
2023-12-11T14:52:11.454Z,87.78
2023-12-11T14:56:12.915Z,88.64
2023-12-11T15:00:14.971Z,88.35
2023-12-11T15:04:16.567Z,87.70
2023-12-11T15:08:19.450Z,89.05
2023-12-11T15:12:21.381Z,89.78
2023-12-11T15:16:23.292Z,90.41
2023-12-11T15:20:24.962Z,91.01
2023-12-11T15:24:27.904Z,90.66
2023-12-11T15:28:29.497Z,91.94
2023-12-11T15:32:31.496Z,91.25
2023-12-11T15:36:32.995Z,92.20
2023-12-11T15:40:36.130Z,92.26
2023-12-11T15:44:37.625Z,92.77
2023-12-11T15:48:39.519Z,92.62
2023-12-11T15:52:41.024Z,93.50
2023-12-11T15:56:43.893Z,93.90
2023-12-11T16:00:45.591Z,92.23
2023-12-11T16:04:47.420Z,93.26
2023-12-11T16:08:48.880Z,93.08
2023-12-11T16:12:51.828Z,93.58
2023-12-11T16:16:53.519Z,93.64
2023-12-11T16:20:55.002Z,93.69
2023-12-11T16:24:56.878Z,94.12
2023-12-11T16:28:59.753Z,94.38
2023-12-11T16:33:01.289Z,94.43
2023-12-11T16:37:02.824Z,94.68
2023-12-11T16:41:04.747Z,94.16
2023-12-11T16:45:09.608Z,94.63
2023-12-11T16:49:11.228Z,94.68
2023-12-11T16:53:12.999Z,94.55
2023-12-11T16:57:14.771Z,94.89
2023-12-11T17:01:17.752Z,94.25
2023-12-11T17:05:19.469Z,94.67
2023-12-11T17:09:21.124Z,94.71
2023-12-11T17:13:22.683Z,94.14
2023-12-11T17:17:25.543Z,92.97
2023-12-11T17:21:32.104Z,92.96
2023-12-11T17:25:35.790Z,93.00
2023-12-11T17:29:37.351Z,92.63
2023-12-11T17:33:40.206Z,92.42
2023-12-11T17:37:41.840Z,92.70
2023-12-11T17:41:43.335Z,92.61
2023-12-11T17:45:44.940Z,92.50
2023-12-11T17:49:47.782Z,92.93
2023-12-11T17:53:49.299Z,93.23
2023-12-11T17:57:50.794Z,93.74
2023-12-11T18:01:52.444Z,94.67
2023-12-11T18:05:55.289Z,94.69
2023-12-11T18:09:56.833Z,94.27
2023-12-11T18:13:58.310Z,94.45
2023-12-11T18:17:59.900Z,95.00
2023-12-11T18:22:04.732Z,95.00
2023-12-11T18:26:11.380Z,95.68
2023-12-11T18:30:13.624Z,95.91
2023-12-11T18:34:15.338Z,94.89
2023-12-11T18:38:18.292Z,94.33
2023-12-11T18:42:19.765Z,94.58
2023-12-11T18:46:21.516Z,94.21
2023-12-11T18:50:23.080Z,94.84
2023-12-11T18:54:25.879Z,94.88
2023-12-11T18:58:27.535Z,94.23
2023-12-11T19:02:29.292Z,95.37
2023-12-11T19:06:30.913Z,94.90
2023-12-11T19:10:33.822Z,93.92
2023-12-11T19:14:35.325Z,94.41
2023-12-11T19:18:37.064Z,94.45
2023-12-11T19:22:38.609Z,95.21
2023-12-11T19:26:41.490Z,94.89
2023-12-11T19:30:43.294Z,94.69
2023-12-11T19:34:44.822Z,94.19
2023-12-11T19:38:46.604Z,93.31
2023-12-11T19:42:49.480Z,91.44
2023-12-11T19:46:51.140Z,91.75
2023-12-11T19:50:52.672Z,92.03
2023-12-11T19:54:54.174Z,91.78
2023-12-11T19:58:56.994Z,93.39
2023-12-11T20:02:58.555Z,91.20
2023-12-11T20:07:00.075Z,91.98
2023-12-11T20:11:01.553Z,91.17
2023-12-11T20:15:05.149Z,91.34
2023-12-11T20:19:06.706Z,91.33
2023-12-11T20:23:08.290Z,91.40
2023-12-11T20:27:10.342Z,91.32
2023-12-11T20:31:22.060Z,90.90
2023-12-11T20:35:23.559Z,88.44
2023-12-11T20:39:25.352Z,91.84
2023-12-11T20:43:26.864Z,89.75
2023-12-11T20:47:29.879Z,89.15
2023-12-11T20:51:31.586Z,89.21
2023-12-11T20:55:33.134Z,89.30
2023-12-11T20:59:34.800Z,87.59
2023-12-11T21:03:39.139Z,89.66
2023-12-11T21:07:40.637Z,89.29
2023-12-11T21:11:42.224Z,88.19
2023-12-11T21:15:43.684Z,88.46
2023-12-11T21:19:46.688Z,87.51
2023-12-11T21:23:48.747Z,88.08
2023-12-11T21:27:50.291Z,86.55
2023-12-11T21:31:51.834Z,88.00
2023-12-11T21:35:54.912Z,88.21
2023-12-11T21:39:56.479Z,88.00
2023-12-11T21:43:58.083Z,86.02
2023-12-11T21:47:59.890Z,86.84
2023-12-11T21:52:02.815Z,86.58
2023-12-11T21:56:04.953Z,86.80
2023-12-11T22:00:08.018Z,87.50
2023-12-11T22:04:09.689Z,87.45
2023-12-11T22:08:12.630Z,88.10
2023-12-11T22:12:14.192Z,87.32
2023-12-11T22:16:15.862Z,87.99
2023-12-11T22:20:17.905Z,88.54
2023-12-11T22:24:20.707Z,89.43
2023-12-11T22:28:22.422Z,90.11
2023-12-11T22:32:23.879Z,90.40
2023-12-11T22:36:25.649Z,89.99
2023-12-11T22:40:28.477Z,89.42
2023-12-11T22:44:30.268Z,89.29
2023-12-11T22:48:31.902Z,90.29
2023-12-11T22:52:33.430Z,89.89
2023-12-11T22:56:36.467Z,89.99
2023-12-11T23:00:37.956Z,89.74
2023-12-11T23:04:39.521Z,90.47
2023-12-11T23:08:41.179Z,90.93
2023-12-11T23:12:44.087Z,90.97
2023-12-11T23:16:45.536Z,91.03
2023-12-11T23:20:46.999Z,92.44
2023-12-11T23:24:48.521Z,92.26
2023-12-11T23:28:51.795Z,91.85
2023-12-11T23:32:53.328Z,91.26
2023-12-11T23:36:54.903Z,91.92
2023-12-11T23:40:56.398Z,92.98
2023-12-11T23:44:59.441Z,92.52
2023-12-11T23:49:00.967Z,93.10
2023-12-11T23:53:02.473Z,93.30
2023-12-11T23:57:04.680Z,93.98
